Time;durP1;ratioP1;P1;durP2;ratioP2;P2;SDS_P1;SDS_P2;PMS_P1;PMS_P2;Temp;Humidity;BMP_temperature;BMP_pressure;BME280_temperature;BME280_humidity;BME280_pressure;Samples;Min_cycle;Max_cycle;Signal;HPM_P1;HPM_P2
2022/04/08 00:01:49;;;;;;;9.60;1.58;;;;;;;5.76;78.83;99903.44;5067813;28;20040;-77
2022/04/08 00:04:14;;;;;;;9.93;2.97;;;;;;;5.75;78.07;99914.75;5119104;28;20026;-77
2022/04/08 00:06:40;;;;;;;13.65;1.88;;;;;;;5.76;77.79;99905.19;5084520;28;20028;-77
2022/04/08 00:09:05;;;;;;;16.05;2.40;;;;;;;5.73;77.57;99907.91;5084687;28;20067;-77
2022/04/08 00:11:31;;;;;;;15.45;1.52;;;;;;;5.74;77.51;99899.22;5083724;28;20023;-77
2022/04/08 00:13:56;;;;;;;8.27;1.17;;;;;;;5.74;78.21;99917.41;5101598;28;20347;-77
2022/04/08 00:16:21;;;;;;;9.30;1.52;;;;;;;5.68;77.20;99913.28;5083589;28;20227;-78
2022/04/08 00:18:47;;;;;;;8.73;1.30;;;;;;;5.70;78.15;99908.03;5100810;28;20061;-77
2022/04/08 00:21:13;;;;;;;10.60;1.98;;;;;;;5.72;77.80;99925.25;5101161;28;20091;-77
2022/04/08 00:23:39;;;;;;;9.90;1.35;;;;;;;5.68;77.80;99920.22;5101103;28;20234;-77
2022/04/08 00:26:04;;;;;;;5.97;1.38;;;;;;;5.70;77.58;99921.00;5101512;28;20035;-77
2022/04/08 00:28:29;;;;;;;10.60;1.58;;;;;;;5.65;78.29;99933.31;5100895;28;20243;-77
2022/04/08 00:30:55;;;;;;;15.75;2.17;;;;;;;5.61;78.83;99934.31;5101933;28;20062;-78
2022/04/08 00:33:20;;;;;;;7.38;1.45;;;;;;;5.60;79.52;99936.06;5084555;28;20422;-77
2022/04/08 00:35:46;;;;;;;13.55;1.27;;;;;;;5.62;79.60;99936.00;5084657;28;20037;-77
2022/04/08 00:38:11;;;;;;;3.28;1.08;;;;;;;5.68;79.66;99943.59;5068162;28;20189;-77
2022/04/08 00:40:36;;;;;;;5.07;1.10;;;;;;;5.66;79.79;99941.06;5100677;28;20361;-77
2022/04/08 00:43:16;;;;;;;10.93;1.83;;;;;;;5.68;80.06;99943.59;5084618;28;20035;-77
2022/04/08 00:45:41;;;;;;;4.07;1.17;;;;;;;5.68;79.95;99941.00;5101515;28;20057;-77
2022/04/08 00:48:07;;;;;;;13.45;2.08;;;;;;;5.72;80.07;99947.78;5119675;28;20028;-77
2022/04/08 00:50:44;;;;;;;10.10;1.90;;;;;;;5.71;79.69;99959.94;5101152;28;20103;-77
2022/04/08 00:53:09;;;;;;;8.02;1.45;;;;;;;5.73;80.14;99962.44;5119157;28;20036;-77
2022/04/08 00:55:37;;;;;;;5.55;1.25;;;;;;;5.72;80.39;99956.41;5100552;27;20102;-77
2022/04/08 00:58:04;;;;;;;9.70;1.63;;;;;;;5.73;79.50;99970.25;5140305;27;20027;-77
2022/04/08 01:00:37;;;;;;;12.38;1.70;;;;;;;5.69;79.02;99968.66;5105446;27;20080;-77
2022/04/08 01:03:03;;;;;;;5.78;1.17;;;;;;;5.67;78.67;99976.50;5122857;27;20034;-77
2022/04/08 01:05:29;;;;;;;8.20;1.85;;;;;;;5.66;78.65;99976.59;5122493;27;20043;-77
2022/04/08 01:07:55;;;;;;;8.93;1.48;;;;;;;5.67;78.64;99983.47;5105741;27;20079;-77
2022/04/08 01:10:21;;;;;;;9.75;1.63;;;;;;;5.66;78.56;99971.38;5122125;27;20030;-77
2022/04/08 01:12:49;;;;;;;13.18;1.38;;;;;;;5.63;78.03;99974.09;5140998;27;20031;-77
2022/04/08 01:15:15;;;;;;;6.50;1.10;;;;;;;5.63;79.13;99961.94;5122620;27;20152;-77
2022/04/08 01:17:41;;;;;;;8.82;1.95;;;;;;;5.65;79.69;99964.47;5141096;27;20034;-78
2022/04/08 01:20:07;;;;;;;10.73;1.67;;;;;;;5.70;79.79;99963.41;5105776;27;20108;-77
2022/04/08 01:22:32;;;;;;;6.13;1.20;;;;;;;5.72;79.78;99965.97;5105300;27;20054;-77
2022/04/08 01:25:11;;;;;;;10.55;2.20;;;;;;;5.73;79.12;99965.06;5105990;27;20034;-78
2022/04/08 01:27:38;;;;;;;6.60;1.65;;;;;;;5.70;78.91;99972.97;5140286;27;20038;-77
2022/04/08 01:30:06;;;;;;;4.78;1.63;;;;;;;5.73;79.25;99984.09;5140899;27;20027;-77
2022/04/08 01:32:32;;;;;;;13.63;1.42;;;;;;;5.75;79.24;99973.66;5122074;27;20030;-78
2022/04/08 01:34:57;;;;;;;6.97;1.40;;;;;;;5.74;79.66;99967.59;5105673;27;20373;-77
2022/04/08 01:37:23;;;;;;;11.90;1.35;;;;;;;5.68;79.35;99979.97;5122121;27;20096;-77
2022/04/08 01:39:48;;;;;;;6.68;1.23;;;;;;;5.65;79.72;99977.47;5141421;27;20026;-77
2022/04/08 01:42:14;;;;;;;9.80;1.45;;;;;;;5.61;79.36;99986.28;5105473;27;20246;-77
2022/04/08 01:44:39;;;;;;;7.95;1.48;;;;;;;5.60;79.78;99980.22;5122167;27;20262;-77
2022/04/08 01:47:05;;;;;;;8.23;1.30;;;;;;;5.60;79.61;99994.97;5140743;27;20039;-77
2022/04/08 01:49:31;;;;;;;9.63;1.45;;;;;;;5.53;79.14;99992.56;5140104;27;20027;-77
2022/04/08 01:51:57;;;;;;;16.80;2.05;;;;;;;5.55;79.59;99990.78;5148278;27;20056;-77
2022/04/08 01:54:23;;;;;;;4.43;1.05;;;;;;;5.58;79.52;99992.41;5121941;28;20357;-77
2022/04/08 01:56:49;;;;;;;9.20;1.20;;;;;;;5.55;79.31;99988.19;5104921;28;20121;-77
2022/04/08 01:59:14;;;;;;;9.27;1.38;;;;;;;5.51;79.36;99998.72;5104794;28;20043;-77
2022/04/08 02:01:40;;;;;;;8.93;1.38;;;;;;;5.49;79.42;99993.56;5140535;28;20039;-77
2022/04/08 02:04:06;;;;;;;9.50;1.55;;;;;;;5.53;79.52;100002.09;5104851;28;20154;-77
2022/04/08 02:06:32;;;;;;;4.35;1.60;;;;;;;5.56;79.92;100002.84;5121844;28;20354;-77
2022/04/08 02:08:58;;;;;;;7.38;1.42;;;;;;;5.51;78.51;100001.31;5141774;27;20034;-77
2022/04/08 02:11:24;;;;;;;3.90;1.50;;;;;;;5.47;78.30;99990.16;5144251;27;20365;-77
2022/04/08 02:13:50;;;;;;;5.43;1.63;;;;;;;5.47;78.28;100000.56;5126284;27;20031;-77
2022/04/08 02:16:16;;;;;;;6.47;1.63;;;;;;;5.48;78.81;100004.03;5144316;27;20031;-77
2022/04/08 02:18:42;;;;;;;11.60;1.90;;;;;;;5.46;77.56;99987.66;5126112;27;20023;-77
2022/04/08 02:21:09;;;;;;;4.68;1.27;;;;;;;5.48;78.18;99986.69;5144681;27;20238;-77
2022/04/08 02:23:36;;;;;;;6.00;1.38;;;;;;;5.37;76.85;99988.78;5125579;27;20353;-77
2022/04/08 02:26:02;;;;;;;5.57;1.38;;;;;;;5.35;76.97;99991.44;5108503;27;20030;-78
2022/04/08 02:28:27;;;;;;;5.05;1.67;;;;;;;5.35;77.64;99980.22;5143088;27;20102;-78
2022/04/08 02:30:55;;;;;;;1.50;1.05;;;;;;;5.39;77.91;99989.59;5143688;27;20039;-78
2022/04/08 02:33:20;;;;;;;4.88;1.27;;;;;;;5.40;77.29;99993.88;5142920;27;20053;-78
2022/04/08 02:35:46;;;;;;;7.68;1.50;;;;;;;5.36;77.51;99979.28;5108151;27;20055;-78
2022/04/08 02:38:11;;;;;;;6.28;1.45;;;;;;;5.40;77.82;99975.69;5143556;27;20039;-78
2022/04/08 02:40:37;;;;;;;6.78;1.30;;;;;;;5.39;77.41;99976.59;5142689;27;20357;-78
2022/04/08 02:43:03;;;;;;;6.85;1.27;;;;;;;5.34;77.07;99976.75;5107993;27;20110;-78
2022/04/08 02:45:29;;;;;;;4.85;1.70;;;;;;;5.36;78.03;99979.28;5142503;27;20037;-78
2022/04/08 02:47:54;;;;;;;5.80;1.40;;;;;;;5.38;77.70;99980.09;5124632;27;20039;-78
2022/04/08 02:50:20;;;;;;;3.90;1.38;;;;;;;5.39;77.42;99981.78;5124331;27;20039;-78
2022/04/08 02:52:45;;;;;;;4.20;1.80;;;;;;;5.41;77.22;99992.13;5107544;27;20042;-78
2022/04/08 02:55:10;;;;;;;8.77;1.75;;;;;;;5.30;76.87;99993.31;5124638;27;20391;-78
2022/04/08 02:57:44;;;;;;;4.05;1.02;;;;;;;5.30;77.55;99995.91;5124342;27;20062;-78
2022/04/08 03:00:12;;;;;;;4.57;1.60;;;;;;;5.32;77.54;99990.69;5124599;27;20035;-78
2022/04/08 03:02:38;;;;;;;3.15;1.10;;;;;;;5.33;77.87;99997.56;5143344;27;20184;-78
2022/04/08 03:05:06;;;;;;;6.38;1.40;;;;;;;5.36;77.73;100005.25;5124898;27;20069;-78
2022/04/08 03:07:32;;;;;;;5.70;2.03;;;;;;;5.35;77.55;100011.38;5142465;27;20245;-78
2022/04/08 03:09:57;;;;;;;4.70;1.38;;;;;;;5.34;77.68;100014.84;5124643;27;20372;-78
2022/04/08 03:12:23;;;;;;;4.65;1.17;;;;;;;5.32;77.62;100016.66;5123684;27;20267;-78
2022/04/08 03:14:48;;;;;;;2.63;0.80;;;;;;;5.35;77.79;100022.59;5124012;27;20034;-78
2022/04/08 03:17:14;;;;;;;4.13;1.40;;;;;;;5.38;78.04;100021.63;5123525;27;20038;-78
2022/04/08 03:19:39;;;;;;;8.20;0.95;;;;;;;5.36;77.57;100026.03;5123653;27;20297;-78
2022/04/08 03:22:06;;;;;;;2.70;1.08;;;;;;;5.39;77.85;100031.97;5123158;27;20080;-78
2022/04/08 03:24:32;;;;;;;2.25;1.00;;;;;;;5.43;77.86;100032.72;5107120;27;20075;-78
2022/04/08 03:26:57;;;;;;;2.53;0.85;;;;;;;5.46;77.94;100039.59;5106919;27;20045;-78
2022/04/08 03:29:23;;;;;;;6.60;1.58;;;;;;;5.45;77.77;100033.53;5124374;27;20334;-78
2022/04/08 03:31:49;;;;;;;2.72;0.90;;;;;;;5.42;77.63;100035.38;5124659;27;20042;-78
2022/04/08 03:34:14;;;;;;;5.70;1.42;;;;;;;5.36;77.71;100034.66;5142317;27;20039;-78
2022/04/08 03:36:40;;;;;;;5.63;1.20;;;;;;;5.39;77.93;100036.31;5142103;27;20045;-78
2022/04/08 03:39:05;;;;;;;4.78;1.25;;;;;;;5.40;78.02;100030.22;5106797;27;20029;-78
2022/04/08 03:41:30;;;;;;;1.98;0.90;;;;;;;5.39;77.96;100025.94;5141759;27;20038;-78
2022/04/08 03:43:56;;;;;;;3.38;0.90;;;;;;;5.42;78.13;100030.16;5123786;27;20038;-78
2022/04/08 03:46:21;;;;;;;0.80;0.47;;;;;;;5.42;78.19;100025.84;5106370;27;20034;-78
2022/04/08 03:48:47;;;;;;;2.17;1.02;;;;;;;5.43;78.30;100029.28;5142490;27;20077;-78
2022/04/08 03:51:12;;;;;;;2.78;0.90;;;;;;;5.45;78.52;100017.94;5123767;27;20261;-78
2022/04/08 03:53:37;;;;;;;4.85;1.20;;;;;;;5.45;78.33;100009.31;5106304;27;20051;-78
2022/04/08 03:56:05;;;;;;;3.05;0.90;;;;;;;5.47;78.50;100005.75;5123479;27;20626;-78
2022/04/08 03:58:30;;;;;;;2.15;0.98;;;;;;;5.49;78.39;100021.28;5141363;27;20031;-78
2022/04/08 04:00:56;;;;;;;1.83;0.68;;;;;;;5.48;78.20;100015.25;5123797;27;20078;-78
2022/04/08 04:03:22;;;;;;;3.25;0.98;;;;;;;5.47;78.28;100015.28;5123442;27;20060;-78
2022/04/08 04:05:47;;;;;;;3.75;1.00;;;;;;;5.45;78.44;100017.09;5123621;27;20243;-78
2022/04/08 04:08:18;;;;;;;4.78;0.95;;;;;;;5.46;78.54;100017.06;5123068;27;20039;-78
2022/04/08 04:10:47;;;;;;;2.95;0.80;;;;;;;5.48;78.57;100017.00;5123284;27;20043;-78
2022/04/08 04:13:15;;;;;;;2.30;0.77;;;;;;;5.45;78.45;100009.31;5141517;27;20110;-78
2022/04/08 04:15:41;;;;;;;3.38;0.80;;;;;;;5.44;78.52;100013.66;5123003;27;20075;-78
2022/04/08 04:18:08;;;;;;;6.50;0.80;;;;;;;5.42;78.12;100007.66;5123552;27;20017;-78
2022/04/08 04:20:34;;;;;;;3.35;1.08;;;;;;;5.42;78.46;100012.00;5123167;27;20127;-78
2022/04/08 04:22:59;;;;;;;5.22;1.20;;;;;;;5.39;78.43;100007.75;5123624;27;20251;-78
2022/04/08 04:25:26;;;;;;;4.75;0.80;;;;;;;5.40;78.54;100014.63;5105752;27;20102;-81
2022/04/08 04:27:51;;;;;;;4.28;0.95;;;;;;;5.42;78.67;100018.06;5122819;27;20023;-78
2022/04/08 04:30:17;;;;;;;2.00;0.75;;;;;;;5.43;78.47;100017.13;5140898;27;20484;-78
2022/04/08 04:32:42;;;;;;;3.08;0.90;;;;;;;5.42;78.66;100007.66;5141107;27;20360;-78
2022/04/08 04:35:08;;;;;;;8.27;1.10;;;;;;;5.42;78.63;100017.19;5123097;27;20266;-78
2022/04/08 04:37:37;;;;;;;3.95;1.30;;;;;;;5.39;78.52;100016.38;5105156;27;20259;-78
2022/04/08 04:40:03;;;;;;;2.45;0.90;;;;;;;5.41;78.58;100015.50;5141381;27;20041;-78
2022/04/08 04:42:29;;;;;;;3.05;1.20;;;;;;;5.38;78.55;100016.44;5122319;27;20037;-78
2022/04/08 04:44:55;;;;;;;2.42;0.85;;;;;;;5.38;78.54;100014.72;5123120;27;20027;-78
2022/04/08 04:47:21;;;;;;;3.88;1.10;;;;;;;5.40;78.65;100019.84;5139255;27;20094;-78
2022/04/08 04:49:46;;;;;;;2.83;0.68;;;;;;;5.41;78.78;100013.75;5118956;28;20088;-78
2022/04/08 04:52:12;;;;;;;1.92;0.75;;;;;;;5.43;78.88;100014.53;5118835;28;20192;-78
2022/04/08 04:54:37;;;;;;;2.47;1.20;;;;;;;5.43;78.65;100011.94;5065232;28;20051;-78
2022/04/08 04:57:03;;;;;;;3.35;1.02;;;;;;;5.44;78.83;100013.66;5079488;28;20119;-78
2022/04/08 04:59:29;;;;;;;2.17;0.73;;;;;;;5.44;78.73;100013.66;5096530;28;20071;-78
2022/04/08 05:01:54;;;;;;;7.05;1.08;;;;;;;5.46;78.87;100021.41;5118429;28;20058;-78
2022/04/08 05:04:20;;;;;;;2.38;0.88;;;;;;;5.46;78.93;100013.63;5118197;28;20046;-78
2022/04/08 05:06:45;;;;;;;3.70;0.80;;;;;;;5.47;78.82;100016.13;5100180;28;20031;-78
2022/04/08 05:09:11;;;;;;;4.68;1.50;;;;;;;5.47;78.84;100010.94;5118988;28;20031;-78
2022/04/08 05:11:36;;;;;;;3.47;1.35;;;;;;;5.48;78.94;100015.25;5117648;28;20029;-78
2022/04/08 05:14:02;;;;;;;5.88;1.20;;;;;;;5.48;78.97;100006.63;5100420;28;20032;-78
2022/04/08 05:16:28;;;;;;;5.50;1.40;;;;;;;5.46;78.70;100008.41;5082704;28;20047;-78
2022/04/08 05:18:53;;;;;;;2.70;0.95;;;;;;;5.46;78.89;100011.84;5118367;28;20077;-78
2022/04/08 05:21:18;;;;;;;2.70;1.13;;;;;;;5.47;78.86;100012.69;5099422;28;20350;-78
2022/04/08 05:23:44;;;;;;;3.75;1.10;;;;;;;5.48;79.01;100004.03;5118093;28;20046;-78
2022/04/08 05:26:09;;;;;;;5.25;1.50;;;;;;;5.49;79.09;100000.50;5100067;28;20039;-78
2022/04/08 05:28:35;;;;;;;5.47;1.38;;;;;;;5.49;79.18;99996.16;5116769;28;20050;-78
2022/04/08 05:31:00;;;;;;;3.40;0.90;;;;;;;5.49;79.03;99998.75;5083428;28;20362;-81
2022/04/08 05:33:26;;;;;;;7.57;1.30;;;;;;;5.49;78.91;99990.97;5083758;28;20031;-78
2022/04/08 05:35:51;;;;;;;5.40;1.10;;;;;;;5.50;78.93;99987.47;5100957;28;20035;-78
2022/04/08 05:38:17;;;;;;;3.15;0.85;;;;;;;5.50;79.09;99995.25;5118353;28;20024;-78
2022/04/08 05:40:42;;;;;;;3.22;0.82;;;;;;;5.51;79.00;99990.91;5100047;28;20030;-78
2022/04/08 05:43:08;;;;;;;3.00;1.30;;;;;;;5.51;79.19;99983.13;5099014;28;20335;-78
2022/04/08 05:45:34;;;;;;;2.50;0.70;;;;;;;5.51;79.17;99985.72;5118090;28;20058;-78
2022/04/08 05:48:04;;;;;;;2.78;0.60;;;;;;;5.51;79.09;99973.59;5099633;28;20226;-78
2022/04/08 05:50:30;;;;;;;1.42;0.90;;;;;;;5.52;79.30;99977.88;5117136;28;20035;-78
2022/04/08 05:52:55;;;;;;;1.92;0.80;;;;;;;5.53;79.23;99970.94;5099269;28;20441;-79
2022/04/08 05:55:20;;;;;;;1.60;0.80;;;;;;;5.55;79.30;99976.94;5098925;28;20035;-78
2022/04/08 05:57:47;;;;;;;3.08;0.98;;;;;;;5.56;79.37;99976.88;5098675;28;20063;-78
2022/04/08 06:00:13;;;;;;;2.15;0.90;;;;;;;5.57;79.55;99975.97;5116933;28;20239;-79
2022/04/08 06:02:40;;;;;;;1.85;1.10;;;;;;;5.58;79.54;99972.50;5099565;28;20063;-78
2022/04/08 06:05:07;;;;;;;7.97;1.27;;;;;;;5.56;79.10;99974.28;5081976;28;20028;-78
2022/04/08 06:07:32;;;;;;;4.30;1.15;;;;;;;5.57;79.42;99978.56;5115389;28;20317;-78
2022/04/08 06:10:02;;;;;;;2.75;0.75;;;;;;;5.60;79.28;99979.38;5117548;28;20035;-78
2022/04/08 06:12:27;;;;;;;5.20;0.90;;;;;;;5.61;79.41;99978.50;5116674;28;20087;-78
2022/04/08 06:14:53;;;;;;;8.20;1.20;;;;;;;5.58;79.41;99985.47;5116030;28;20035;-78
2022/04/08 06:17:19;;;;;;;4.72;1.35;;;;;;;5.61;79.37;99984.53;5116437;28;20093;-78
2022/04/08 06:19:46;;;;;;;4.55;1.45;;;;;;;5.60;79.33;99990.59;5065227;28;20070;-78
2022/04/08 06:22:14;;;;;;;8.45;1.10;;;;;;;5.62;79.37;99987.97;5117307;28;20216;-78
2022/04/08 06:24:40;;;;;;;7.85;1.23;;;;;;;5.60;79.18;99985.41;5115536;28;20023;-78
2022/04/08 06:27:05;;;;;;;6.38;1.02;;;;;;;5.58;79.37;99977.69;5117133;28;20266;-78
2022/04/08 06:29:31;;;;;;;8.55;1.42;;;;;;;5.57;79.58;99975.16;5115109;28;20330;-78
2022/04/08 06:31:56;;;;;;;9.07;1.38;;;;;;;5.58;79.50;99969.91;5115754;28;20091;-78
2022/04/08 06:34:22;;;;;;;4.25;0.98;;;;;;;5.56;79.31;99971.69;5059979;28;20318;-81
2022/04/08 06:36:47;;;;;;;9.50;1.35;;;;;;;5.61;79.31;99973.28;5107672;28;20055;-78
2022/04/08 06:39:13;;;;;;;4.95;1.02;;;;;;;5.60;79.02;99981.97;5080176;28;20044;-78
2022/04/08 06:41:38;;;;;;;4.93;1.38;;;;;;;5.56;78.57;99976.03;5089112;28;20358;-78
2022/04/08 06:44:03;;;;;;;6.93;1.38;;;;;;;5.56;79.07;99986.41;5093918;28;20047;-78
2022/04/08 06:46:29;;;;;;;2.55;1.15;;;;;;;5.56;78.99;99978.63;5064526;28;20388;-78
2022/04/08 06:48:54;;;;;;;4.65;1.70;;;;;;;5.58;79.27;99980.28;5096846;28;20032;-78
2022/04/08 06:51:20;;;;;;;9.57;1.20;;;;;;;5.62;79.16;99985.34;5111296;28;20043;-78
2022/04/08 06:53:45;;;;;;;6.03;1.27;;;;;;;5.62;79.37;99983.63;5074126;28;20043;-78
2022/04/08 06:56:11;;;;;;;2.97;1.10;;;;;;;5.62;78.99;99987.97;5119333;28;20243;-78
2022/04/08 06:58:40;;;;;;;3.80;1.30;;;;;;;5.63;79.10;99981.88;5066894;28;20056;-78
2022/04/08 07:01:07;;;;;;;7.18;1.40;;;;;;;5.62;79.34;99983.63;5124162;27;20360;-78
2022/04/08 07:03:32;;;;;;;4.28;1.35;;;;;;;5.60;79.49;99984.56;5099999;28;20061;-78
2022/04/08 07:05:58;;;;;;;12.27;1.38;;;;;;;5.59;79.23;99983.72;5108554;28;20342;-78
2022/04/08 07:08:23;;;;;;;4.95;1.02;;;;;;;5.62;78.83;99985.34;5068152;28;20061;-79
2022/04/08 07:10:48;;;;;;;3.75;0.95;;;;;;;5.58;78.03;99975.09;5091629;28;20418;-79
2022/04/08 07:13:14;;;;;;;12.10;1.45;;;;;;;5.57;77.13;99986.38;5104279;28;20032;-79
2022/04/08 07:15:39;;;;;;;5.43;1.23;;;;;;;5.58;77.64;99971.63;5095445;28;20043;-79
2022/04/08 07:18:05;;;;;;;9.50;1.48;;;;;;;5.61;77.79;99986.28;5085404;28;20308;-78
2022/04/08 07:20:31;;;;;;;6.57;1.00;;;;;;;5.62;77.91;99978.44;5105736;28;20093;-78
2022/04/08 07:23:01;;;;;;;7.38;1.27;;;;;;;5.64;77.94;99980.97;5103693;28;20066;-79
2022/04/08 07:25:27;;;;;;;8.10;1.17;;;;;;;5.65;78.42;99982.66;5108500;28;20043;-78
2022/04/08 07:27:56;;;;;;;7.82;1.85;;;;;;;5.67;78.24;99975.66;5122036;28;20250;-79
2022/04/08 07:30:22;;;;;;;6.25;1.08;;;;;;;5.69;78.21;99972.09;5114257;28;20040;-79
2022/04/08 07:32:51;;;;;;;9.23;1.42;;;;;;;5.70;78.32;99972.97;5104425;28;20023;-79
2022/04/08 07:35:22;;;;;;;2.20;0.77;;;;;;;5.71;78.42;99972.94;5113945;28;20254;-79
2022/04/08 07:37:48;;;;;;;4.82;1.20;;;;;;;5.73;77.89;99960.72;5104625;28;20321;-79
2022/04/08 07:40:14;;;;;;;4.80;1.20;;;;;;;5.75;78.17;99971.06;5102179;28;20125;-78
2022/04/08 07:42:40;;;;;;;6.30;1.40;;;;;;;5.76;78.15;99963.19;5083003;28;20092;-79
2022/04/08 07:45:06;;;;;;;3.22;0.73;;;;;;;5.76;77.95;99962.34;5102533;28;20055;-78
2022/04/08 07:47:32;;;;;;;10.70;1.88;;;;;;;5.80;78.38;99968.31;5101427;28;20114;-79
2022/04/08 07:50:06;;;;;;;2.35;1.00;;;;;;;5.82;77.74;99958.69;5112449;28;20551;-79
2022/04/08 07:52:31;;;;;;;3.42;1.25;;;;;;;5.81;78.06;99967.41;5119247;28;20057;-78
2022/04/08 07:54:57;;;;;;;5.85;1.33;;;;;;;5.82;78.07;99966.50;5089655;28;20032;-78
2022/04/08 07:57:22;;;;;;;5.05;1.33;;;;;;;5.83;78.50;99960.41;5116636;28;20085;-78
2022/04/08 07:59:48;;;;;;;9.00;1.17;;;;;;;5.84;78.35;99962.94;5102009;28;20032;-78
2022/04/08 08:02:14;;;;;;;6.03;1.02;;;;;;;5.87;78.41;99961.97;5096477;28;20039;-78
2022/04/08 08:04:40;;;;;;;9.65;1.58;;;;;;;5.88;78.52;99972.34;5110814;28;20059;-78
2022/04/08 08:07:06;;;;;;;4.80;1.55;;;;;;;5.90;78.47;99957.53;5118302;28;20103;-78
2022/04/08 08:09:33;;;;;;;5.03;1.35;;;;;;;5.92;78.69;99960.91;5097580;28;20040;-78
2022/04/08 08:11:59;;;;;;;5.45;0.98;;;;;;;5.88;76.76;99954.13;5119824;28;20112;-78
2022/04/08 08:14:24;;;;;;;6.47;1.17;;;;;;;5.90;76.04;99961.88;5107897;28;20409;-78
2022/04/08 08:16:50;;;;;;;2.92;1.05;;;;;;;5.90;76.64;99956.69;5094516;28;20074;-78
2022/04/08 08:19:15;;;;;;;6.75;1.10;;;;;;;5.92;76.43;99954.88;5081457;28;20032;-81
2022/04/08 08:21:40;;;;;;;6.82;0.80;;;;;;;5.94;76.83;99947.88;5116008;28;20031;-78
2022/04/08 08:24:06;;;;;;;7.78;1.13;;;;;;;5.95;77.13;99944.38;5120107;28;20046;-78
2022/04/08 08:26:31;;;;;;;4.72;1.10;;;;;;;6.00;77.39;99942.47;5105637;28;20413;-78
2022/04/08 08:28:57;;;;;;;5.25;0.90;;;;;;;6.02;77.60;99937.22;5119087;28;20428;-78
2022/04/08 08:31:22;;;;;;;6.25;1.08;;;;;;;6.03;76.48;99937.19;5100483;28;20027;-78
2022/04/08 08:33:49;;;;;;;3.40;0.73;;;;;;;6.03;76.82;99936.34;5093745;27;20689;-78
2022/04/08 08:36:15;;;;;;;3.88;1.00;;;;;;;6.05;76.00;99937.97;5110244;28;20042;-78
2022/04/08 08:38:41;;;;;;;3.83;1.30;;;;;;;6.08;76.18;99950.03;5115363;28;20234;-78
2022/04/08 08:41:10;;;;;;;4.30;1.10;;;;;;;6.13;76.08;99938.53;5106447;28;20036;-78
2022/04/08 08:43:36;;;;;;;7.65;1.27;;;;;;;6.15;76.60;99936.72;5111516;28;20043;-78
2022/04/08 08:46:06;;;;;;;5.82;1.35;;;;;;;6.14;76.54;99932.44;5111302;27;20323;-78
2022/04/08 08:48:34;;;;;;;4.70;1.35;;;;;;;6.19;76.34;99944.44;5096052;28;20308;-79
2022/04/08 08:51:02;;;;;;;10.63;1.38;;;;;;;6.20;75.63;99933.94;5118685;28;20028;-78
2022/04/08 08:53:30;;;;;;;5.18;1.15;;;;;;;6.21;75.62;99938.25;5117180;28;20027;-78
2022/04/08 08:55:56;;;;;;;4.50;1.10;;;;;;;6.23;75.71;99938.22;5117000;28;20032;-79
2022/04/08 08:58:23;;;;;;;3.63;1.30;;;;;;;6.21;74.68;99925.25;5102597;28;20078;-78
2022/04/08 09:00:49;;;;;;;7.60;1.58;;;;;;;6.24;74.69;99925.16;5087617;28;20047;-78
2022/04/08 09:03:15;;;;;;;2.58;0.80;;;;;;;6.24;74.28;99925.16;5098350;28;20072;-78
2022/04/08 09:05:42;;;;;;;8.82;1.20;;;;;;;6.24;74.71;99919.09;5086397;28;20032;-78
2022/04/08 09:08:08;;;;;;;4.78;0.98;;;;;;;6.27;74.93;99924.19;5099695;28;20083;-78
2022/04/08 09:10:35;;;;;;;3.17;1.10;;;;;;;6.28;74.85;99921.53;5103330;28;20084;-78
2022/04/08 09:13:02;;;;;;;3.22;0.82;;;;;;;6.30;74.18;99931.88;5108029;28;20046;-78
2022/04/08 09:15:28;;;;;;;5.25;1.02;;;;;;;6.32;74.94;99935.25;5115287;28;20027;-78
2022/04/08 09:17:54;;;;;;;9.00;1.10;;;;;;;6.36;74.78;99930.78;5114823;28;20238;-78
2022/04/08 09:20:20;;;;;;;2.67;0.88;;;;;;;6.38;75.08;99923.78;5103388;28;20069;-78
2022/04/08 09:22:55;;;;;;;1.92;0.82;;;;;;;6.44;75.16;99933.94;5085503;28;20031;-78
2022/04/08 09:25:26;;;;;;;4.95;0.80;;;;;;;6.38;73.66;99928.97;5109519;28;20096;-79
2022/04/08 09:27:55;;;;;;;4.55;0.82;;;;;;;6.39;73.55;99931.53;5115184;28;20237;-78
2022/04/08 09:30:20;;;;;;;4.72;0.80;;;;;;;6.38;72.46;99926.38;5112307;28;20035;-78
2022/04/08 09:32:46;;;;;;;2.78;0.88;;;;;;;6.38;73.51;99919.41;5115212;28;20035;-78
2022/04/08 09:35:19;;;;;;;6.60;0.98;;;;;;;6.39;74.43;99926.31;5096284;28;20051;-79
2022/04/08 09:37:59;;;;;;;5.20;0.98;;;;;;;6.40;73.92;99921.97;5106329;28;20043;-79
2022/04/08 09:40:25;;;;;;;4.57;1.05;;;;;;;6.39;73.79;99918.53;5079666;28;20269;-78
2022/04/08 09:42:52;;;;;;;2.85;0.98;;;;;;;6.40;74.11;99921.97;5111862;27;20137;-79
2022/04/08 09:46:02;;;;;;;5.45;1.33;;;;;;;6.43;74.48;99917.50;5091808;28;20264;-79
2022/04/08 09:52:10;;;;;;;5.75;1.30;;;;;;;6.46;73.57;99914.78;5054758;28;20035;-79
2022/04/08 09:54:41;;;;;;;6.53;1.00;;;;;;;6.47;74.01;99913.03;5040375;28;20056;-79
2022/04/08 09:57:16;;;;;;;5.47;0.80;;;;;;;6.51;75.36;99923.25;5089189;27;20388;-79
2022/04/08 09:59:44;;;;;;;5.40;1.27;;;;;;;6.53;74.86;99917.97;5122188;27;20027;-79
2022/04/08 10:02:10;;;;;;;4.63;0.90;;;;;;;6.56;74.50;99914.41;5117846;28;20507;-79
2022/04/08 10:04:36;;;;;;;6.55;1.00;;;;;;;6.60;74.35;99916.81;5099340;28;20464;-79
2022/04/08 10:07:02;;;;;;;3.60;0.85;;;;;;;6.59;73.79;99924.72;5099095;28;20073;-79
2022/04/08 10:09:33;;;;;;;6.10;1.08;;;;;;;6.62;73.60;99924.56;5122194;28;20065;-79
2022/04/08 10:12:07;;;;;;;6.95;1.10;;;;;;;6.63;73.73;99924.53;5100624;28;20023;-79
2022/04/08 10:14:40;;;;;;;7.05;1.42;;;;;;;6.65;73.59;99927.91;5099457;28;20027;-79
2022/04/08 10:17:08;;;;;;;5.63;1.60;;;;;;;6.68;72.39;99920.00;5077470;28;20447;-79
2022/04/08 10:19:33;;;;;;;5.45;1.10;;;;;;;6.69;72.56;99908.69;5119342;28;20096;-79
2022/04/08 10:22:00;;;;;;;2.85;0.65;;;;;;;6.69;72.89;99921.69;5092299;28;20262;-79
2022/04/08 10:24:30;;;;;;;4.18;0.65;;;;;;;6.70;74.94;99912.97;5095974;28;20103;-79
2022/04/08 10:27:06;;;;;;;3.10;0.70;;;;;;;6.70;73.59;99912.97;5095608;28;20028;-79
2022/04/08 10:29:37;;;;;;;4.43;1.42;;;;;;;6.74;73.78;99905.88;5110629;28;20051;-79
2022/04/08 10:32:12;;;;;;;5.15;1.00;;;;;;;6.73;73.77;99905.06;5088349;28;20074;-79
2022/04/08 10:34:38;;;;;;;11.30;1.42;;;;;;;6.74;73.50;99913.69;5102949;27;20340;-79
2022/04/08 10:37:21;;;;;;;13.10;1.48;;;;;;;6.73;72.99;99933.69;5094866;28;20041;-79
2022/04/08 10:40:01;;;;;;;8.30;0.90;;;;;;;6.77;74.03;99930.94;5090746;28;20034;-79
2022/04/08 10:42:28;;;;;;;3.67;0.80;;;;;;;6.81;74.13;99927.31;5107878;28;20369;-79
2022/04/08 10:44:54;;;;;;;1.17;0.63;;;;;;;6.82;74.40;99936.81;5108780;28;20040;-79
2022/04/08 10:47:27;;;;;;;1.58;0.88;;;;;;;6.84;74.87;99943.66;5080739;28;20039;-79
2022/04/08 10:50:04;;;;;;;4.93;0.90;;;;;;;6.82;71.64;99940.28;5082853;28;20252;-79
2022/04/08 10:52:38;;;;;;;3.03;0.80;;;;;;;6.81;71.64;99928.16;5113146;27;20036;-79
2022/04/08 10:55:09;;;;;;;2.88;0.70;;;;;;;6.81;72.00;99915.16;5094239;28;20342;-79
2022/04/08 10:57:36;;;;;;;4.53;1.02;;;;;;;6.83;71.16;99909.88;5110718;28;20051;-79
2022/04/08 11:00:06;;;;;;;2.63;0.65;;;;;;;6.84;73.03;99907.22;5098032;28;20043;-79
2022/04/08 11:02:38;;;;;;;3.40;0.68;;;;;;;6.85;72.38;99918.47;5108770;28;20345;-79
2022/04/08 11:05:12;;;;;;;5.68;0.95;;;;;;;6.85;73.15;99918.47;5099030;28;20043;-79
2022/04/08 11:07:47;;;;;;;4.95;1.00;;;;;;;6.85;73.23;99921.91;5101943;28;20047;-79
2022/04/08 11:10:14;;;;;;;6.30;1.13;;;;;;;6.86;73.05;99920.19;5118966;28;20043;-79
2022/04/08 11:12:51;;;;;;;4.72;0.95;;;;;;;6.88;72.67;99920.97;5101310;28;20036;-79
2022/04/08 11:15:18;;;;;;;7.65;1.10;;;;;;;6.88;73.25;99915.75;5098961;28;20207;-79
2022/04/08 11:17:46;;;;;;;7.03;1.15;;;;;;;6.90;73.08;99914.78;5112717;28;20035;-79
2022/04/08 11:20:17;;;;;;;2.65;0.93;;;;;;;6.93;72.99;99903.41;5099047;28;20099;-79
2022/04/08 11:22:48;;;;;;;7.78;1.27;;;;;;;6.92;72.19;99904.31;5094274;28;20080;-79
2022/04/08 11:25:22;;;;;;;4.82;1.00;;;;;;;6.92;71.61;99893.91;5088947;28;20115;-79
2022/04/08 11:27:57;;;;;;;4.22;0.80;;;;;;;6.91;70.84;99884.38;5105363;27;20096;-79
2022/04/08 11:30:24;;;;;;;5.95;0.95;;;;;;;6.92;71.82;99886.09;5112353;28;20247;-79
2022/04/08 11:32:50;;;;;;;3.75;1.33;;;;;;;6.95;72.28;99896.38;5109583;28;20328;-79
2022/04/08 11:35:15;;;;;;;5.47;1.23;;;;;;;6.97;71.47;99897.16;5104558;28;20042;-79
2022/04/08 11:37:41;;;;;;;5.85;0.90;;;;;;;6.98;71.37;99891.03;5101627;28;20032;-79
2022/04/08 11:40:07;;;;;;;3.30;1.02;;;;;;;6.98;71.77;99883.22;5093658;27;20043;-79
2022/04/08 11:42:33;;;;;;;3.78;1.20;;;;;;;7.00;71.27;99880.56;5094870;28;20118;-79